sensor_id;sensor_type;location;lat;lon;timestamp;P1;durP1;ratioP1;P2;durP2;ratioP2
38208;SDS011;24016;52.102;11.584;2023-02-22T00:00:14;37.58;;;20.45;;
38208;SDS011;24016;52.102;11.584;2023-02-22T00:02:50;38.58;;;20.75;;
38208;SDS011;24016;52.102;11.584;2023-02-22T00:05:23;40.28;;;20.60;;
38208;SDS011;24016;52.102;11.584;2023-02-22T00:07:50;39.10;;;21.00;;
38208;SDS011;24016;52.102;11.584;2023-02-22T00:10:16;41.65;;;21.92;;
38208;SDS011;24016;52.102;11.584;2023-02-22T00:12:44;44.20;;;22.13;;
38208;SDS011;24016;52.102;11.584;2023-02-22T00:15:12;40.70;;;20.50;;
38208;SDS011;24016;52.102;11.584;2023-02-22T00:17:39;40.22;;;21.52;;
38208;SDS011;24016;52.102;11.584;2023-02-22T00:20:05;40.15;;;21.88;;
38208;SDS011;24016;52.102;11.584;2023-02-22T00:22:31;39.00;;;21.10;;
38208;SDS011;24016;52.102;11.584;2023-02-22T00:24:57;43.80;;;22.10;;
38208;SDS011;24016;52.102;11.584;2023-02-22T00:27:23;45.40;;;21.73;;
38208;SDS011;24016;52.102;11.584;2023-02-22T00:29:48;40.50;;;21.67;;
38208;SDS011;24016;52.102;11.584;2023-02-22T00:32:14;42.22;;;21.98;;
38208;SDS011;24016;52.102;11.584;2023-02-22T00:34:40;47.55;;;21.73;;
38208;SDS011;24016;52.102;11.584;2023-02-22T00:37:07;39.35;;;21.30;;
38208;SDS011;24016;52.102;11.584;2023-02-22T00:39:34;45.28;;;21.98;;
38208;SDS011;24016;52.102;11.584;2023-02-22T00:42:00;37.65;;;19.98;;
38208;SDS011;24016;52.102;11.584;2023-02-22T00:44:26;39.47;;;20.38;;
38208;SDS011;24016;52.102;11.584;2023-02-22T00:46:52;39.17;;;20.52;;
38208;SDS011;24016;52.102;11.584;2023-02-22T00:49:17;37.28;;;20.15;;
38208;SDS011;24016;52.102;11.584;2023-02-22T00:51:43;40.28;;;20.27;;
38208;SDS011;24016;52.102;11.584;2023-02-22T00:54:09;44.60;;;22.67;;
38208;SDS011;24016;52.102;11.584;2023-02-22T00:56:34;40.72;;;19.88;;
38208;SDS011;24016;52.102;11.584;2023-02-22T00:59:01;37.28;;;20.17;;
38208;SDS011;24016;52.102;11.584;2023-02-22T01:01:27;39.80;;;20.23;;
38208;SDS011;24016;52.102;11.584;2023-02-22T01:03:52;37.45;;;20.15;;
38208;SDS011;24016;52.102;11.584;2023-02-22T01:06:18;43.03;;;21.08;;
38208;SDS011;24016;52.102;11.584;2023-02-22T01:08:44;40.58;;;20.35;;
38208;SDS011;24016;52.102;11.584;2023-02-22T01:11:11;40.40;;;21.02;;
38208;SDS011;24016;52.102;11.584;2023-02-22T01:13:39;42.35;;;21.30;;
38208;SDS011;24016;52.102;11.584;2023-02-22T01:16:05;41.83;;;20.63;;
38208;SDS011;24016;52.102;11.584;2023-02-22T01:18:32;41.15;;;20.33;;
38208;SDS011;24016;52.102;11.584;2023-02-22T01:20:59;40.55;;;21.17;;
38208;SDS011;24016;52.102;11.584;2023-02-22T01:23:25;44.42;;;21.75;;
38208;SDS011;24016;52.102;11.584;2023-02-22T01:25:51;41.78;;;22.13;;
38208;SDS011;24016;52.102;11.584;2023-02-22T01:28:16;38.67;;;20.08;;
38208;SDS011;24016;52.102;11.584;2023-02-22T01:30:42;44.30;;;21.73;;
38208;SDS011;24016;52.102;11.584;2023-02-22T01:33:07;48.33;;;22.98;;
38208;SDS011;24016;52.102;11.584;2023-02-22T01:35:34;41.42;;;21.45;;
38208;SDS011;24016;52.102;11.584;2023-02-22T01:38:04;44.95;;;21.65;;
38208;SDS011;24016;52.102;11.584;2023-02-22T01:40:31;43.50;;;22.15;;
38208;SDS011;24016;52.102;11.584;2023-02-22T01:43:27;42.45;;;20.85;;
38208;SDS011;24016;52.102;11.584;2023-02-22T01:45:56;39.17;;;19.10;;
38208;SDS011;24016;52.102;11.584;2023-02-22T01:54:13;45.75;;;20.75;;
38208;SDS011;24016;52.102;11.584;2023-02-22T01:56:47;45.90;;;20.58;;
38208;SDS011;24016;52.102;11.584;2023-02-22T01:59:18;45.85;;;22.05;;
38208;SDS011;24016;52.102;11.584;2023-02-22T02:01:45;41.70;;;21.67;;
38208;SDS011;24016;52.102;11.584;2023-02-22T02:04:13;40.80;;;21.70;;
38208;SDS011;24016;52.102;11.584;2023-02-22T02:06:41;43.50;;;21.63;;
38208;SDS011;24016;52.102;11.584;2023-02-22T02:12:12;45.50;;;21.98;;
38208;SDS011;24016;52.102;11.584;2023-02-22T02:14:41;44.15;;;21.45;;
38208;SDS011;24016;52.102;11.584;2023-02-22T02:17:08;42.58;;;22.13;;
38208;SDS011;24016;52.102;11.584;2023-02-22T02:22:53;45.67;;;22.85;;
38208;SDS011;24016;52.102;11.584;2023-02-22T02:34:10;40.55;;;21.15;;
38208;SDS011;24016;52.102;11.584;2023-02-22T02:41:46;41.97;;;20.65;;
38208;SDS011;24016;52.102;11.584;2023-02-22T02:49:21;49.92;;;21.88;;
38208;SDS011;24016;52.102;11.584;2023-02-22T02:51:54;45.10;;;22.20;;
38208;SDS011;24016;52.102;11.584;2023-02-22T02:54:21;45.03;;;21.65;;
38208;SDS011;24016;52.102;11.584;2023-02-22T02:56:49;47.83;;;22.60;;
38208;SDS011;24016;52.102;11.584;2023-02-22T02:59:25;44.95;;;21.33;;
38208;SDS011;24016;52.102;11.584;2023-02-22T03:02:06;40.55;;;21.35;;
38208;SDS011;24016;52.102;11.584;2023-02-22T03:04:43;50.35;;;23.00;;
38208;SDS011;24016;52.102;11.584;2023-02-22T03:07:42;48.60;;;23.92;;
38208;SDS011;24016;52.102;11.584;2023-02-22T03:15:42;49.47;;;23.65;;
38208;SDS011;24016;52.102;11.584;2023-02-22T03:21:40;51.40;;;24.50;;
38208;SDS011;24016;52.102;11.584;2023-02-22T03:24:29;48.77;;;23.37;;
38208;SDS011;24016;52.102;11.584;2023-02-22T03:27:07;48.78;;;23.35;;
38208;SDS011;24016;52.102;11.584;2023-02-22T03:29:50;46.05;;;22.35;;
38208;SDS011;24016;52.102;11.584;2023-02-22T03:32:21;47.58;;;22.75;;
38208;SDS011;24016;52.102;11.584;2023-02-22T03:34:54;44.63;;;22.05;;
38208;SDS011;24016;52.102;11.584;2023-02-22T03:37:41;49.85;;;23.25;;
38208;SDS011;24016;52.102;11.584;2023-02-22T03:40:11;54.22;;;22.98;;
38208;SDS011;24016;52.102;11.584;2023-02-22T03:42:47;56.72;;;24.38;;
38208;SDS011;24016;52.102;11.584;2023-02-22T03:45:16;55.88;;;24.27;;
38208;SDS011;24016;52.102;11.584;2023-02-22T03:47:46;55.97;;;24.73;;
38208;SDS011;24016;52.102;11.584;2023-02-22T03:50:20;53.83;;;24.45;;
38208;SDS011;24016;52.102;11.584;2023-02-22T03:52:51;55.28;;;23.38;;
38208;SDS011;24016;52.102;11.584;2023-02-22T03:55:17;58.35;;;23.05;;
38208;SDS011;24016;52.102;11.584;2023-02-22T03:57:44;59.83;;;24.17;;
38208;SDS011;24016;52.102;11.584;2023-02-22T04:00:15;67.07;;;26.15;;
38208;SDS011;24016;52.102;11.584;2023-02-22T04:02:44;75.40;;;26.67;;
38208;SDS011;24016;52.102;11.584;2023-02-22T04:05:10;76.55;;;26.83;;
38208;SDS011;24016;52.102;11.584;2023-02-22T04:07:35;69.95;;;26.40;;
38208;SDS011;24016;52.102;11.584;2023-02-22T04:10:01;74.80;;;27.58;;
38208;SDS011;24016;52.102;11.584;2023-02-22T04:12:27;81.63;;;28.88;;
38208;SDS011;24016;52.102;11.584;2023-02-22T04:14:52;83.95;;;28.30;;
38208;SDS011;24016;52.102;11.584;2023-02-22T04:17:18;66.45;;;25.67;;
38208;SDS011;24016;52.102;11.584;2023-02-22T04:19:44;86.25;;;29.02;;
38208;SDS011;24016;52.102;11.584;2023-02-22T04:22:09;91.03;;;29.63;;
38208;SDS011;24016;52.102;11.584;2023-02-22T04:24:35;93.70;;;30.50;;
38208;SDS011;24016;52.102;11.584;2023-02-22T04:27:01;91.28;;;30.02;;
38208;SDS011;24016;52.102;11.584;2023-02-22T04:29:27;95.15;;;30.23;;
38208;SDS011;24016;52.102;11.584;2023-02-22T04:31:53;101.63;;;32.22;;
38208;SDS011;24016;52.102;11.584;2023-02-22T04:34:18;92.97;;;30.83;;
38208;SDS011;24016;52.102;11.584;2023-02-22T04:36:44;92.72;;;29.73;;
38208;SDS011;24016;52.102;11.584;2023-02-22T04:39:10;97.70;;;31.23;;
38208;SDS011;24016;52.102;11.584;2023-02-22T04:41:35;94.72;;;30.35;;
38208;SDS011;24016;52.102;11.584;2023-02-22T04:44:01;95.68;;;31.55;;
38208;SDS011;24016;52.102;11.584;2023-02-22T04:46:26;99.43;;;31.80;;
38208;SDS011;24016;52.102;11.584;2023-02-22T04:48:52;101.80;;;31.98;;
38208;SDS011;24016;52.102;11.584;2023-02-22T04:51:18;101.75;;;32.05;;
38208;SDS011;24016;52.102;11.584;2023-02-22T04:53:44;103.57;;;32.58;;
38208;SDS011;24016;52.102;11.584;2023-02-22T04:56:09;92.35;;;31.15;;
38208;SDS011;24016;52.102;11.584;2023-02-22T04:58:35;92.40;;;30.10;;
38208;SDS011;24016;52.102;11.584;2023-02-22T05:01:00;96.47;;;30.67;;
38208;SDS011;24016;52.102;11.584;2023-02-22T05:03:27;94.15;;;32.50;;
38208;SDS011;24016;52.102;11.584;2023-02-22T05:05:52;87.53;;;29.75;;
38208;SDS011;24016;52.102;11.584;2023-02-22T05:08:18;94.38;;;31.20;;
38208;SDS011;24016;52.102;11.584;2023-02-22T05:10:43;80.22;;;30.13;;
38208;SDS011;24016;52.102;11.584;2023-02-22T05:13:09;79.47;;;29.90;;
38208;SDS011;24016;52.102;11.584;2023-02-22T05:15:35;87.10;;;30.85;;
38208;SDS011;24016;52.102;11.584;2023-02-22T05:18:00;89.05;;;30.85;;
38208;SDS011;24016;52.102;11.584;2023-02-22T05:20:27;88.25;;;31.98;;
38208;SDS011;24016;52.102;11.584;2023-02-22T05:22:55;87.90;;;30.10;;
38208;SDS011;24016;52.102;11.584;2023-02-22T05:25:22;80.47;;;29.73;;
38208;SDS011;24016;52.102;11.584;2023-02-22T05:27:48;82.75;;;30.13;;
38208;SDS011;24016;52.102;11.584;2023-02-22T05:30:15;71.97;;;29.05;;
38208;SDS011;24016;52.102;11.584;2023-02-22T05:32:41;76.47;;;28.92;;
38208;SDS011;24016;52.102;11.584;2023-02-22T05:35:06;71.93;;;28.98;;
38208;SDS011;24016;52.102;11.584;2023-02-22T05:37:32;70.45;;;29.42;;
38208;SDS011;24016;52.102;11.584;2023-02-22T05:39:58;72.18;;;29.25;;
38208;SDS011;24016;52.102;11.584;2023-02-22T05:42:23;77.40;;;29.25;;
38208;SDS011;24016;52.102;11.584;2023-02-22T05:44:49;75.85;;;30.40;;
38208;SDS011;24016;52.102;11.584;2023-02-22T05:47:14;67.65;;;28.52;;
38208;SDS011;24016;52.102;11.584;2023-02-22T05:49:40;67.88;;;28.45;;
38208;SDS011;24016;52.102;11.584;2023-02-22T05:52:05;64.13;;;28.30;;
38208;SDS011;24016;52.102;11.584;2023-02-22T05:54:31;65.38;;;27.70;;
38208;SDS011;24016;52.102;11.584;2023-02-22T05:56:56;67.45;;;27.23;;
38208;SDS011;24016;52.102;11.584;2023-02-22T05:59:22;65.38;;;28.02;;
38208;SDS011;24016;52.102;11.584;2023-02-22T06:01:47;65.25;;;28.25;;
38208;SDS011;24016;52.102;11.584;2023-02-22T06:04:13;65.72;;;26.92;;
38208;SDS011;24016;52.102;11.584;2023-02-22T06:06:38;63.30;;;26.10;;
38208;SDS011;24016;52.102;11.584;2023-02-22T06:09:04;61.88;;;27.40;;
38208;SDS011;24016;52.102;11.584;2023-02-22T06:11:29;62.60;;;26.05;;
38208;SDS011;24016;52.102;11.584;2023-02-22T06:13:55;56.33;;;25.08;;
38208;SDS011;24016;52.102;11.584;2023-02-22T06:16:20;51.95;;;25.15;;
38208;SDS011;24016;52.102;11.584;2023-02-22T06:18:47;62.95;;;26.88;;
38208;SDS011;24016;52.102;11.584;2023-02-22T06:21:13;59.25;;;25.13;;
38208;SDS011;24016;52.102;11.584;2023-02-22T06:23:38;60.30;;;25.27;;
38208;SDS011;24016;52.102;11.584;2023-02-22T06:26:04;58.13;;;26.65;;
38208;SDS011;24016;52.102;11.584;2023-02-22T06:28:30;64.55;;;27.45;;
38208;SDS011;24016;52.102;11.584;2023-02-22T06:30:55;59.25;;;26.80;;
38208;SDS011;24016;52.102;11.584;2023-02-22T06:33:21;59.92;;;27.15;;
38208;SDS011;24016;52.102;11.584;2023-02-22T06:35:46;60.13;;;26.65;;
38208;SDS011;24016;52.102;11.584;2023-02-22T06:38:19;55.20;;;26.27;;
38208;SDS011;24016;52.102;11.584;2023-02-22T06:40:46;61.90;;;26.92;;
38208;SDS011;24016;52.102;11.584;2023-02-22T06:43:12;58.13;;;26.83;;
38208;SDS011;24016;52.102;11.584;2023-02-22T06:45:37;58.65;;;26.58;;
38208;SDS011;24016;52.102;11.584;2023-02-22T06:48:02;68.85;;;27.83;;
38208;SDS011;24016;52.102;11.584;2023-02-22T06:50:29;57.92;;;26.15;;
38208;SDS011;24016;52.102;11.584;2023-02-22T06:52:55;55.92;;;24.58;;
38208;SDS011;24016;52.102;11.584;2023-02-22T06:55:23;53.97;;;24.42;;
38208;SDS011;24016;52.102;11.584;2023-02-22T06:57:50;47.95;;;24.80;;
38208;SDS011;24016;52.102;11.584;2023-02-22T07:00:16;53.50;;;23.15;;
38208;SDS011;24016;52.102;11.584;2023-02-22T07:02:43;50.55;;;23.70;;
38208;SDS011;24016;52.102;11.584;2023-02-22T07:05:10;53.40;;;24.80;;
38208;SDS011;24016;52.102;11.584;2023-02-22T07:07:37;43.15;;;22.42;;
38208;SDS011;24016;52.102;11.584;2023-02-22T07:10:04;44.33;;;23.45;;
38208;SDS011;24016;52.102;11.584;2023-02-22T07:12:32;41.70;;;21.98;;
38208;SDS011;24016;52.102;11.584;2023-02-22T07:14:57;42.25;;;22.67;;
38208;SDS011;24016;52.102;11.584;2023-02-22T07:17:23;44.63;;;22.90;;
38208;SDS011;24016;52.102;11.584;2023-02-22T07:19:48;44.30;;;23.25;;
38208;SDS011;24016;52.102;11.584;2023-02-22T07:22:14;40.53;;;21.48;;
38208;SDS011;24016;52.102;11.584;2023-02-22T07:24:41;44.08;;;24.50;;
38208;SDS011;24016;52.102;11.584;2023-02-22T07:27:07;41.95;;;21.98;;
38208;SDS011;24016;52.102;11.584;2023-02-22T07:29:32;40.60;;;21.33;;
38208;SDS011;24016;52.102;11.584;2023-02-22T07:31:59;44.17;;;22.35;;
38208;SDS011;24016;52.102;11.584;2023-02-22T07:34:26;49.08;;;26.38;;
38208;SDS011;24016;52.102;11.584;2023-02-22T07:36:51;43.55;;;21.08;;
38208;SDS011;24016;52.102;11.584;2023-02-22T07:39:16;41.97;;;21.73;;
38208;SDS011;24016;52.102;11.584;2023-02-22T07:41:43;47.30;;;22.02;;
38208;SDS011;24016;52.102;11.584;2023-02-22T07:44:08;39.42;;;21.08;;
38208;SDS011;24016;52.102;11.584;2023-02-22T07:46:34;43.90;;;21.67;;
38208;SDS011;24016;52.102;11.584;2023-02-22T07:48:59;40.15;;;21.95;;
38208;SDS011;24016;52.102;11.584;2023-02-22T07:51:25;42.80;;;23.02;;
38208;SDS011;24016;52.102;11.584;2023-02-22T07:53:50;38.05;;;20.25;;
38208;SDS011;24016;52.102;11.584;2023-02-22T07:56:16;39.42;;;21.70;;
38208;SDS011;24016;52.102;11.584;2023-02-22T07:58:42;39.75;;;21.70;;
38208;SDS011;24016;52.102;11.584;2023-02-22T08:01:07;38.42;;;21.35;;
38208;SDS011;24016;52.102;11.584;2023-02-22T08:03:34;40.40;;;22.17;;
38208;SDS011;24016;52.102;11.584;2023-02-22T08:06:00;41.92;;;21.38;;
38208;SDS011;24016;52.102;11.584;2023-02-22T08:08:27;37.00;;;20.73;;
38208;SDS011;24016;52.102;11.584;2023-02-22T08:10:53;36.50;;;20.23;;
38208;SDS011;24016;52.102;11.584;2023-02-22T08:13:18;36.40;;;19.92;;
38208;SDS011;24016;52.102;11.584;2023-02-22T08:15:46;37.80;;;21.17;;
38208;SDS011;24016;52.102;11.584;2023-02-22T08:18:13;39.88;;;22.02;;
38208;SDS011;24016;52.102;11.584;2023-02-22T08:20:40;38.38;;;19.90;;
38208;SDS011;24016;52.102;11.584;2023-02-22T08:23:08;38.83;;;21.60;;
38208;SDS011;24016;52.102;11.584;2023-02-22T08:25:34;38.90;;;21.98;;
38208;SDS011;24016;52.102;11.584;2023-02-22T08:28:01;38.42;;;21.42;;
38208;SDS011;24016;52.102;11.584;2023-02-22T08:30:31;38.90;;;21.63;;
38208;SDS011;24016;52.102;11.584;2023-02-22T08:32:58;40.67;;;21.65;;
38208;SDS011;24016;52.102;11.584;2023-02-22T08:35:26;44.25;;;21.77;;
38208;SDS011;24016;52.102;11.584;2023-02-22T08:37:53;39.20;;;22.05;;
38208;SDS011;24016;52.102;11.584;2023-02-22T08:40:25;42.03;;;21.38;;
38208;SDS011;24016;52.102;11.584;2023-02-22T08:42:53;39.60;;;22.23;;
38208;SDS011;24016;52.102;11.584;2023-02-22T08:45:19;41.63;;;23.50;;
38208;SDS011;24016;52.102;11.584;2023-02-22T08:47:45;45.47;;;23.75;;
38208;SDS011;24016;52.102;11.584;2023-02-22T08:50:18;37.42;;;20.63;;
38208;SDS011;24016;52.102;11.584;2023-02-22T08:52:45;41.92;;;22.02;;
38208;SDS011;24016;52.102;11.584;2023-02-22T08:55:11;42.65;;;22.52;;
38208;SDS011;24016;52.102;11.584;2023-02-22T08:57:36;45.25;;;23.38;;
38208;SDS011;24016;52.102;11.584;2023-02-22T09:00:03;44.17;;;22.15;;
38208;SDS011;24016;52.102;11.584;2023-02-22T09:02:29;40.38;;;21.80;;
38208;SDS011;24016;52.102;11.584;2023-02-22T09:04:54;38.10;;;21.63;;
38208;SDS011;24016;52.102;11.584;2023-02-22T09:07:20;39.58;;;21.73;;
38208;SDS011;24016;52.102;11.584;2023-02-22T09:09:46;45.00;;;21.90;;
38208;SDS011;24016;52.102;11.584;2023-02-22T09:12:11;42.83;;;21.48;;
38208;SDS011;24016;52.102;11.584;2023-02-22T09:14:37;38.40;;;21.23;;
38208;SDS011;24016;52.102;11.584;2023-02-22T09:17:03;41.13;;;21.42;;
38208;SDS011;24016;52.102;11.584;2023-02-22T09:19:29;36.30;;;19.60;;
38208;SDS011;24016;52.102;11.584;2023-02-22T09:21:56;38.72;;;21.95;;
38208;SDS011;24016;52.102;11.584;2023-02-22T09:24:22;40.33;;;21.15;;
38208;SDS011;24016;52.102;11.584;2023-02-22T09:26:48;36.33;;;19.75;;
38208;SDS011;24016;52.102;11.584;2023-02-22T09:29:20;41.33;;;21.73;;
38208;SDS011;24016;52.102;11.584;2023-02-22T09:31:47;37.17;;;21.75;;
38208;SDS011;24016;52.102;11.584;2023-02-22T09:34:14;34.22;;;19.55;;
38208;SDS011;24016;52.102;11.584;2023-02-22T09:36:42;38.17;;;21.75;;
38208;SDS011;24016;52.102;11.584;2023-02-22T09:39:10;36.85;;;20.48;;
38208;SDS011;24016;52.102;11.584;2023-02-22T09:41:41;35.85;;;19.23;;
38208;SDS011;24016;52.102;11.584;2023-02-22T09:45:02;33.40;;;19.45;;
38208;SDS011;24016;52.102;11.584;2023-02-22T09:47:17;38.83;;;21.20;;
38208;SDS011;24016;52.102;11.584;2023-02-22T09:52:50;31.38;;;18.63;;
38208;SDS011;24016;52.102;11.584;2023-02-22T09:55:40;33.00;;;18.90;;
38208;SDS011;24016;52.102;11.584;2023-02-22T09:58:13;35.58;;;18.83;;
38208;SDS011;24016;52.102;11.584;2023-02-22T10:00:45;31.55;;;17.77;;
38208;SDS011;24016;52.102;11.584;2023-02-22T10:03:35;29.05;;;18.05;;
38208;SDS011;24016;52.102;11.584;2023-02-22T10:06:10;25.20;;;16.83;;
38208;SDS011;24016;52.102;11.584;2023-02-22T10:08:36;29.60;;;16.63;;
38208;SDS011;24016;52.102;11.584;2023-02-22T10:11:20;28.30;;;16.70;;
38208;SDS011;24016;52.102;11.584;2023-02-22T10:14:14;24.92;;;16.38;;
38208;SDS011;24016;52.102;11.584;2023-02-22T10:19:42;24.85;;;14.70;;
38208;SDS011;24016;52.102;11.584;2023-02-22T10:22:21;27.15;;;15.90;;
38208;SDS011;24016;52.102;11.584;2023-02-22T10:25:02;23.60;;;15.73;;
38208;SDS011;24016;52.102;11.584;2023-02-22T10:27:45;23.88;;;15.20;;
38208;SDS011;24016;52.102;11.584;2023-02-22T10:30:20;22.25;;;14.38;;
38208;SDS011;24016;52.102;11.584;2023-02-22T10:32:51;20.83;;;13.95;;
38208;SDS011;24016;52.102;11.584;2023-02-22T10:35:33;20.98;;;13.05;;
38208;SDS011;24016;52.102;11.584;2023-02-22T10:38:05;22.20;;;14.10;;
38208;SDS011;24016;52.102;11.584;2023-02-22T10:40:38;21.85;;;14.05;;
38208;SDS011;24016;52.102;11.584;2023-02-22T10:43:04;18.92;;;12.70;;
38208;SDS011;24016;52.102;11.584;2023-02-22T10:45:32;22.30;;;13.13;;
38208;SDS011;24016;52.102;11.584;2023-02-22T10:48:02;17.40;;;12.25;;
38208;SDS011;24016;52.102;11.584;2023-02-22T10:50:32;20.58;;;13.27;;
38208;SDS011;24016;52.102;11.584;2023-02-22T10:53:00;22.33;;;12.82;;
38208;SDS011;24016;52.102;11.584;2023-02-22T10:55:26;18.95;;;11.52;;
38208;SDS011;24016;52.102;11.584;2023-02-22T10:57:58;17.23;;;11.57;;
38208;SDS011;24016;52.102;11.584;2023-02-22T11:00:37;16.45;;;11.13;;
38208;SDS011;24016;52.102;11.584;2023-02-22T11:03:17;12.98;;;9.60;;
38208;SDS011;24016;52.102;11.584;2023-02-22T11:05:44;15.35;;;9.57;;
38208;SDS011;24016;52.102;11.584;2023-02-22T11:10:45;16.27;;;9.48;;
38208;SDS011;24016;52.102;11.584;2023-02-22T11:13:31;14.23;;;9.30;;
38208;SDS011;24016;52.102;11.584;2023-02-22T11:19:02;15.63;;;9.93;;
38208;SDS011;24016;52.102;11.584;2023-02-22T11:21:32;15.45;;;9.85;;
38208;SDS011;24016;52.102;11.584;2023-02-22T11:24:04;12.95;;;9.15;;
38208;SDS011;24016;52.102;11.584;2023-02-22T11:26:37;15.88;;;10.25;;
38208;SDS011;24016;52.102;11.584;2023-02-22T11:29:18;13.57;;;9.68;;
38208;SDS011;24016;52.102;11.584;2023-02-22T11:31:46;14.43;;;10.13;;
38208;SDS011;24016;52.102;11.584;2023-02-22T11:34:26;14.55;;;10.07;;
38208;SDS011;24016;52.102;11.584;2023-02-22T11:37:17;16.02;;;10.27;;
38208;SDS011;24016;52.102;11.584;2023-02-22T11:40:04;12.63;;;9.27;;
38208;SDS011;24016;52.102;11.584;2023-02-22T11:42:30;14.30;;;10.48;;
38208;SDS011;24016;52.102;11.584;2023-02-22T11:45:07;18.08;;;11.15;;
38208;SDS011;24016;52.102;11.584;2023-02-22T11:50:24;15.93;;;10.90;;
38208;SDS011;24016;52.102;11.584;2023-02-22T11:53:20;15.07;;;11.27;;
38208;SDS011;24016;52.102;11.584;2023-02-22T11:56:18;15.27;;;11.40;;
38208;SDS011;24016;52.102;11.584;2023-02-22T11:58:54;15.20;;;11.10;;
38208;SDS011;24016;52.102;11.584;2023-02-22T12:06:50;13.88;;;9.77;;
38208;SDS011;24016;52.102;11.584;2023-02-22T12:10:11;14.65;;;10.05;;
38208;SDS011;24016;52.102;11.584;2023-02-22T12:20:45;11.38;;;8.52;;
38208;SDS011;24016;52.102;11.584;2023-02-22T12:23:18;12.10;;;9.45;;
38208;SDS011;24016;52.102;11.584;2023-02-22T12:25:54;11.85;;;8.05;;
38208;SDS011;24016;52.102;11.584;2023-02-22T12:37:00;10.88;;;7.32;;
38208;SDS011;24016;52.102;11.584;2023-02-22T12:42:36;11.48;;;8.05;;
38208;SDS011;24016;52.102;11.584;2023-02-22T12:48:23;13.65;;;9.18;;
38208;SDS011;24016;52.102;11.584;2023-02-22T12:51:07;13.88;;;9.98;;
38208;SDS011;24016;52.102;11.584;2023-02-22T12:53:52;13.20;;;8.55;;
38208;SDS011;24016;52.102;11.584;2023-02-22T12:56:33;13.95;;;9.25;;
38208;SDS011;24016;52.102;11.584;2023-02-22T12:59:15;13.82;;;9.50;;
38208;SDS011;24016;52.102;11.584;2023-02-22T13:01:50;12.50;;;9.35;;
38208;SDS011;24016;52.102;11.584;2023-02-22T13:04:20;10.45;;;8.30;;
38208;SDS011;24016;52.102;11.584;2023-02-22T13:06:49;13.52;;;9.43;;
38208;SDS011;24016;52.102;11.584;2023-02-22T13:09:40;13.65;;;10.25;;
38208;SDS011;24016;52.102;11.584;2023-02-22T13:12:31;14.95;;;10.00;;
38208;SDS011;24016;52.102;11.584;2023-02-22T13:18:19;14.15;;;9.95;;
38208;SDS011;24016;52.102;11.584;2023-02-22T13:20:58;14.93;;;10.75;;
38208;SDS011;24016;52.102;11.584;2023-02-22T13:26:29;13.18;;;10.00;;
38208;SDS011;24016;52.102;11.584;2023-02-22T13:32:04;12.55;;;8.85;;
38208;SDS011;24016;52.102;11.584;2023-02-22T13:40:00;12.30;;;9.27;;
38208;SDS011;24016;52.102;11.584;2023-02-22T13:47:57;13.30;;;8.90;;
38208;SDS011;24016;52.102;11.584;2023-02-22T13:50:40;12.68;;;8.82;;
38208;SDS011;24016;52.102;11.584;2023-02-22T13:53:27;13.02;;;8.80;;
38208;SDS011;24016;52.102;11.584;2023-02-22T13:55:58;12.50;;;8.60;;
38208;SDS011;24016;52.102;11.584;2023-02-22T13:58:25;11.88;;;9.20;;
38208;SDS011;24016;52.102;11.584;2023-02-22T14:00:52;13.05;;;8.82;;
38208;SDS011;24016;52.102;11.584;2023-02-22T14:05:50;13.32;;;9.52;;
38208;SDS011;24016;52.102;11.584;2023-02-22T14:11:01;12.43;;;9.10;;
38208;SDS011;24016;52.102;11.584;2023-02-22T14:16:19;12.98;;;9.00;;
38208;SDS011;24016;52.102;11.584;2023-02-22T14:18:59;13.35;;;9.00;;
38208;SDS011;24016;52.102;11.584;2023-02-22T14:21:26;13.18;;;8.65;;
38208;SDS011;24016;52.102;11.584;2023-02-22T14:23:52;11.73;;;8.60;;
38208;SDS011;24016;52.102;11.584;2023-02-22T14:26:26;12.00;;;8.85;;
38208;SDS011;24016;52.102;11.584;2023-02-22T14:34:16;13.65;;;9.73;;
38208;SDS011;24016;52.102;11.584;2023-02-22T14:37:03;18.42;;;12.52;;
38208;SDS011;24016;52.102;11.584;2023-02-22T14:39:36;22.10;;;12.45;;
38208;SDS011;24016;52.102;11.584;2023-02-22T14:42:09;19.40;;;13.05;;
38208;SDS011;24016;52.102;11.584;2023-02-22T14:45:04;17.17;;;12.20;;
38208;SDS011;24016;52.102;11.584;2023-02-22T14:47:49;15.98;;;11.70;;
38208;SDS011;24016;52.102;11.584;2023-02-22T14:50:47;18.02;;;12.15;;
38208;SDS011;24016;52.102;11.584;2023-02-22T14:53:35;21.35;;;13.57;;
38208;SDS011;24016;52.102;11.584;2023-02-22T14:56:06;19.05;;;13.10;;
38208;SDS011;24016;52.102;11.584;2023-02-22T15:01:26;18.90;;;12.80;;
38208;SDS011;24016;52.102;11.584;2023-02-22T15:04:17;21.60;;;14.25;;
38208;SDS011;24016;52.102;11.584;2023-02-22T15:06:47;19.30;;;13.15;;
38208;SDS011;24016;52.102;11.584;2023-02-22T15:09:15;21.80;;;14.23;;
38208;SDS011;24016;52.102;11.584;2023-02-22T15:14:26;27.58;;;17.58;;
38208;SDS011;24016;52.102;11.584;2023-02-22T15:16:56;24.27;;;14.77;;
38208;SDS011;24016;52.102;11.584;2023-02-22T15:19:26;22.42;;;15.55;;
38208;SDS011;24016;52.102;11.584;2023-02-22T15:21:54;22.30;;;15.95;;
38208;SDS011;24016;52.102;11.584;2023-02-22T15:24:29;21.33;;;15.48;;
38208;SDS011;24016;52.102;11.584;2023-02-22T15:27:02;23.50;;;15.43;;
38208;SDS011;24016;52.102;11.584;2023-02-22T15:29:36;23.45;;;15.20;;
38208;SDS011;24016;52.102;11.584;2023-02-22T15:35:11;25.05;;;15.80;;
38208;SDS011;24016;52.102;11.584;2023-02-22T15:37:38;22.50;;;16.85;;
38208;SDS011;24016;52.102;11.584;2023-02-22T15:40:05;23.05;;;16.88;;
38208;SDS011;24016;52.102;11.584;2023-02-22T15:42:48;24.55;;;17.23;;
38208;SDS011;24016;52.102;11.584;2023-02-22T15:45:18;23.48;;;16.52;;
38208;SDS011;24016;52.102;11.584;2023-02-22T15:47:46;25.08;;;16.83;;
38208;SDS011;24016;52.102;11.584;2023-02-22T15:50:14;24.45;;;16.40;;
38208;SDS011;24016;52.102;11.584;2023-02-22T15:55:35;24.88;;;16.88;;
38208;SDS011;24016;52.102;11.584;2023-02-22T15:58:07;24.80;;;15.68;;
38208;SDS011;24016;52.102;11.584;2023-02-22T16:00:43;28.27;;;17.20;;
38208;SDS011;24016;52.102;11.584;2023-02-22T16:03:14;24.05;;;16.83;;
38208;SDS011;24016;52.102;11.584;2023-02-22T16:05:45;24.83;;;17.45;;
38208;SDS011;24016;52.102;11.584;2023-02-22T16:08:14;26.40;;;17.83;;
38208;SDS011;24016;52.102;11.584;2023-02-22T16:10:49;26.90;;;18.55;;
38208;SDS011;24016;52.102;11.584;2023-02-22T16:13:41;28.23;;;17.58;;
38208;SDS011;24016;52.102;11.584;2023-02-22T16:18:41;26.10;;;17.80;;
38208;SDS011;24016;52.102;11.584;2023-02-22T16:21:08;24.83;;;17.42;;
38208;SDS011;24016;52.102;11.584;2023-02-22T16:23:47;24.70;;;17.70;;
38208;SDS011;24016;52.102;11.584;2023-02-22T16:26:30;27.88;;;17.58;;
38208;SDS011;24016;52.102;11.584;2023-02-22T16:28:57;25.27;;;17.25;;
38208;SDS011;24016;52.102;11.584;2023-02-22T16:31:34;28.60;;;18.20;;
38208;SDS011;24016;52.102;11.584;2023-02-22T16:34:02;25.10;;;17.63;;
38208;SDS011;24016;52.102;11.584;2023-02-22T16:36:38;24.45;;;16.92;;
38208;SDS011;24016;52.102;11.584;2023-02-22T16:39:11;27.00;;;17.33;;